Quick Links (Output Below):   Max & Min Temps   /   Climate Reports   /   Zone Forecasts
River Forecasts   /   Forestry Forecasts   /   Aviation Forecasts   /   Radars   /   Features

Terminal Aerodrome Forecast (Fort Smith)

Pick a Site:
Arkadelphia | El Dorado | Fayetteville | Fort Smith | Harrison | Highfill | Hot Springs | Jonesboro
Little Rock | Monticello | Mountain Home | Pine Bluff | Texarkana
 Forecast 

KFSM 261720Z 2618/2718 06010KT P6SM SKC
     FM262000 08012KT P6SM SCT035
     FM270000 10012KT P6SM OVC035 PROB30 2706/2712 -TSRA BKN025CB
     FM271200 08014KT 5SM -TSRA BR OVC035CB=


 Latest METARs (Observations) 
How to Decode METARs
22Z KFSM 262153Z 07014KT 10SM CLR 25/15 A2972 RMK AO2 SLP060
         T02500150
         
21Z KFSM 262053Z 09012G19KT 10SM CLR 26/15 A2972 RMK AO2 SLP061
         T02610150 58016
         
20Z KFSM 261953Z AUTO 08009G17KT 10SM CLR 26/15 A2974 RMK AO2 SLP067
         T02560150
         
19Z KFSM 261853Z 06013KT 10SM CLR 24/14 A2975 RMK AO2 SLP071
         T02440144
         
18Z KFSM 261753Z 07011KT 10SM CLR 23/14 A2977 RMK AO2 SLP077 T02330139
         10233 20139 58004
         
17Z KFSM 261653Z 06010KT 10SM CLR 22/13 A2979 RMK AO2 SLP083
         T02220133
         
16Z KFSM 261553Z 08010KT 10SM CLR 21/13 A2980 RMK AO2 SLP086
         T02060133
         
15Z KFSM 261453Z 07013KT 10SM CLR 19/13 A2978 RMK AO2 SLP081 T01890128
         50014
         
14Z KFSM 261353Z 08010KT 10SM CLR 17/13 A2978 RMK AO2 SLP081
         T01720128
         
13Z KFSM 261253Z 07006KT 10SM CLR 16/13 A2977 RMK AO2 SLP077
         T01610128
         
***** Today's Observations (Above) *****


Back to Main Page
http://www.srh.noaa.gov/lzk/qfcst.php

USA.gov is the U.S. government's official web portal to all federal, state and local government web resources and services.